<?xml version="1.0" encoding="UTF-8" standalone="no" ?>
<gpx xmlns="http://www.topografix.com/GPX/1/1" xmlns:xsi="http://www.w3.org/2001/XMLSchema-instance" xsi:schemaLocation="http://www.topografix.com/GPX/1/1 http://www.topografix.com/GPX/1/1/gpx.xsd" version="1.1" creator="VisuGPX - https://www.visugpx.com">
  <metadata>
    <name>Pic-Louvette 27 km 2025</name>
  </metadata>
  <trk>
    <name><![CDATA[Pic-Louvette 27 km 2025]]></name>
    <trkseg>
      <trkpt lat="48.71152" lon="-0.54053">
        <ele>209.607255</ele>
        <time>2024-11-09T18:15:16.584Z</time>
      </trkpt>
      <trkpt lat="48.71152" lon="-0.54059">
        <ele>209.607255</ele>
        <time>2024-11-09T18:15:17.326Z</time>
      </trkpt>
      <trkpt lat="48.71154" lon="-0.54124">
        <ele>209.607255</ele>
        <time>2024-11-09T18:15:24.641Z</time>
      </trkpt>
      <trkpt lat="48.71149" lon="-0.54158">
        <ele>209.607255</ele>
        <time>2024-11-09T18:15:28.271Z</time>
      </trkpt>
      <trkpt lat="48.71137" lon="-0.54186">
        <ele>209.556843</ele>
        <time>2024-11-09T18:15:31.677Z</time>
      </trkpt>
      <trkpt lat="48.71043" lon="-0.54307">
        <ele>206.871097</ele>
        <time>2024-11-09T18:15:49.842Z</time>
      </trkpt>
      <trkpt lat="48.71041" lon="-0.5431">
        <ele>206.808557</ele>
        <time>2024-11-09T18:15:50.279Z</time>
      </trkpt>
      <trkpt lat="48.71011" lon="-0.54346">
        <ele>205.967663</ele>
        <time>2024-11-09T18:15:56.241Z</time>
      </trkpt>
      <trkpt lat="48.70967" lon="-0.54401">
        <ele>205.711273</ele>
        <time>2024-11-09T18:16:05.885Z</time>
      </trkpt>
      <trkpt lat="48.70926" lon="-0.54452">
        <ele>205.735008</ele>
        <time>2024-11-09T18:16:16.833Z</time>
      </trkpt>
      <trkpt lat="48.70894" lon="-0.54492">
        <ele>205.753468</ele>
        <time>2024-11-09T18:16:26.076Z</time>
      </trkpt>
      <trkpt lat="48.70874" lon="-0.54523">
        <ele>205.766132</ele>
        <time>2024-11-09T18:16:32.695Z</time>
      </trkpt>
      <trkpt lat="48.70793" lon="-0.54693">
        <ele>206.688981</ele>
        <time>2024-11-09T18:17:05.323Z</time>
      </trkpt>
      <trkpt lat="48.70793" lon="-0.54693">
        <ele>206.688981</ele>
        <time>2024-11-09T18:17:05.326Z</time>
      </trkpt>
      <trkpt lat="48.7083" lon="-0.54762">
        <ele>207.069145</ele>
        <time>2024-11-09T18:17:30.570Z</time>
      </trkpt>
      <trkpt lat="48.70868" lon="-0.54832">
        <ele>206.930388</ele>
        <time>2024-11-09T18:17:55.857Z</time>
      </trkpt>
      <trkpt lat="48.70872" lon="-0.54831">
        <ele>206.919591</ele>
        <time>2024-11-09T18:17:56.846Z</time>
      </trkpt>
      <trkpt lat="48.70972" lon="-0.54838">
        <ele>206.685928</ele>
        <time>2024-11-09T18:18:16.884Z</time>
      </trkpt>
      <trkpt lat="48.7107" lon="-0.54869">
        <ele>206.627257</ele>
        <time>2024-11-09T18:18:36.555Z</time>
      </trkpt>
      <trkpt lat="48.71118" lon="-0.54897">
        <ele>206.608987</ele>
        <time>2024-11-09T18:18:47.346Z</time>
      </trkpt>
      <trkpt lat="48.71287" lon="-0.55022">
        <ele>208.675335</ele>
        <time>2024-11-09T18:19:39.847Z</time>
      </trkpt>
      <trkpt lat="48.71474" lon="-0.55184">
        <ele>212.349912</ele>
        <time>2024-11-09T18:20:47.851Z</time>
      </trkpt>
      <trkpt lat="48.71927" lon="-0.5556">
        <ele>213.434149</ele>
        <time>2024-11-09T18:22:42.835Z</time>
      </trkpt>
      <trkpt lat="48.71996" lon="-0.55591">
        <ele>212.660784</ele>
        <time>2024-11-09T18:22:56.791Z</time>
      </trkpt>
      <trkpt lat="48.72074" lon="-0.55603">
        <ele>211.541275</ele>
        <time>2024-11-09T18:23:10.806Z</time>
      </trkpt>
      <trkpt lat="48.72155" lon="-0.55601">
        <ele>210.219482</ele>
        <time>2024-11-09T18:23:25.098Z</time>
      </trkpt>
      <trkpt lat="48.72453" lon="-0.5547">
        <ele>204.404458</ele>
        <time>2024-11-09T18:24:20.121Z</time>
      </trkpt>
      <trkpt lat="48.72483" lon="-0.5546">
        <ele>203.903397</ele>
        <time>2024-11-09T18:24:25.400Z</time>
      </trkpt>
      <trkpt lat="48.72479" lon="-0.55477">
        <ele>203.728994</ele>
        <time>2024-11-09T18:24:27.295Z</time>
      </trkpt>
      <trkpt lat="48.72474" lon="-0.55491">
        <ele>203.583043</ele>
        <time>2024-11-09T18:24:28.886Z</time>
      </trkpt>
      <trkpt lat="48.72522" lon="-0.55605">
        <ele>202.310438</ele>
        <time>2024-11-09T18:24:43.958Z</time>
      </trkpt>
      <trkpt lat="48.72522" lon="-0.55631">
        <ele>202.065267</ele>
        <time>2024-11-09T18:24:47.002Z</time>
      </trkpt>
      <trkpt lat="48.725" lon="-0.55678">
        <ele>201.529523</ele>
        <time>2024-11-09T18:24:53.950Z</time>
      </trkpt>
      <trkpt lat="48.72485" lon="-0.5569">
        <ele>201.425023</ele>
        <time>2024-11-09T18:24:57.222Z</time>
      </trkpt>
      <trkpt lat="48.72453" lon="-0.55704">
        <ele>201.222145</ele>
        <time>2024-11-09T18:25:03.811Z</time>
      </trkpt>
      <trkpt lat="48.72441" lon="-0.55713">
        <ele>201.13594</ele>
        <time>2024-11-09T18:25:06.612Z</time>
      </trkpt>
      <trkpt lat="48.72429" lon="-0.55738">
        <ele>201.011169</ele>
        <time>2024-11-09T18:25:10.534Z</time>
      </trkpt>
      <trkpt lat="48.72406" lon="-0.55753">
        <ele>200.856991</ele>
        <time>2024-11-09T18:25:15.329Z</time>
      </trkpt>
      <trkpt lat="48.72395" lon="-0.55765">
        <ele>200.776072</ele>
        <time>2024-11-09T18:25:17.765Z</time>
      </trkpt>
      <trkpt lat="48.72381" lon="-0.55809">
        <ele>200.577936</ele>
        <time>2024-11-09T18:25:23.606Z</time>
      </trkpt>
      <trkpt lat="48.7236" lon="-0.55851">
        <ele>200.381124</ele>
        <time>2024-11-09T18:25:33.733Z</time>
      </trkpt>
      <trkpt lat="48.72332" lon="-0.55941">
        <ele>200.075015</ele>
        <time>2024-11-09T18:25:53.130Z</time>
      </trkpt>
      <trkpt lat="48.72323" lon="-0.55952">
        <ele>200.019607</ele>
        <time>2024-11-09T18:25:56.646Z</time>
      </trkpt>
      <trkpt lat="48.72284" lon="-0.55972">
        <ele>199.828355</ele>
        <time>2024-11-09T18:26:09.125Z</time>
      </trkpt>
      <trkpt lat="48.72247" lon="-0.55983">
        <ele>199.656137</ele>
        <time>2024-11-09T18:26:21.018Z</time>
      </trkpt>
      <trkpt lat="48.72242" lon="-0.55988">
        <ele>199.624742</ele>
        <time>2024-11-09T18:26:23.268Z</time>
      </trkpt>
      <trkpt lat="48.72239" lon="-0.55996">
        <ele>199.598458</ele>
        <time>2024-11-09T18:26:25.183Z</time>
      </trkpt>
      <trkpt lat="48.72257" lon="-0.56057">
        <ele>199.819945</ele>
        <time>2024-11-09T18:26:40.415Z</time>
      </trkpt>
      <trkpt lat="48.72293" lon="-0.56146">
        <ele>200.176186</ele>
        <time>2024-11-09T18:27:04.523Z</time>
      </trkpt>
      <trkpt lat="48.72295" lon="-0.56158">
        <ele>200.216526</ele>
        <time>2024-11-09T18:27:07.225Z</time>
      </trkpt>
      <trkpt lat="48.72291" lon="-0.56171">
        <ele>200.266687</ele>
        <time>2024-11-09T18:27:10.565Z</time>
      </trkpt>
      <trkpt lat="48.72205" lon="-0.56269">
        <ele>200.929611</ele>
        <time>2024-11-09T18:27:47.259Z</time>
      </trkpt>
      <trkpt lat="48.72197" lon="-0.56281">
        <ele>201.007422</ele>
        <time>2024-11-09T18:27:51.098Z</time>
      </trkpt>
      <trkpt lat="48.72196" lon="-0.56288">
        <ele>201.041869</ele>
        <time>2024-11-09T18:27:52.785Z</time>
      </trkpt>
      <trkpt lat="48.72208" lon="-0.56313">
        <ele>201.182246</ele>
        <time>2024-11-09T18:27:59.797Z</time>
      </trkpt>
      <trkpt lat="48.72256" lon="-0.56374">
        <ele>201.623251</ele>
        <time>2024-11-09T18:28:22.330Z</time>
      </trkpt>
      <trkpt lat="48.72257" lon="-0.56382">
        <ele>201.662821</ele>
        <time>2024-11-09T18:28:24.394Z</time>
      </trkpt>
      <trkpt lat="48.72256" lon="-0.56393">
        <ele>201.711747</ele>
        <time>2024-11-09T18:28:26.943Z</time>
      </trkpt>
      <trkpt lat="48.72133" lon="-0.56597">
        <ele>203.272509</ele>
        <time>2024-11-09T18:29:35.196Z</time>
      </trkpt>
      <trkpt lat="48.72343" lon="-0.56775">
        <ele>202.674785</ele>
        <time>2024-11-09T18:30:18.209Z</time>
      </trkpt>
      <trkpt lat="48.72319" lon="-0.56943">
        <ele>202.617329</ele>
        <time>2024-11-09T18:30:40.435Z</time>
      </trkpt>
      <trkpt lat="48.72293" lon="-0.57102">
        <ele>204.120121</ele>
        <time>2024-11-09T18:31:09.497Z</time>
      </trkpt>
      <trkpt lat="48.7229" lon="-0.57127">
        <ele>204.391148</ele>
        <time>2024-11-09T18:31:14.940Z</time>
      </trkpt>
      <trkpt lat="48.7229" lon="-0.57171">
        <ele>204.848263</ele>
        <time>2024-11-09T18:31:24.256Z</time>
      </trkpt>
      <trkpt lat="48.7229" lon="-0.57212">
        <ele>205.285503</ele>
        <time>2024-11-09T18:31:33.458Z</time>
      </trkpt>
      <trkpt lat="48.72286" lon="-0.57232">
        <ele>205.498648</ele>
        <time>2024-11-09T18:31:37.833Z</time>
      </trkpt>
      <trkpt lat="48.72244" lon="-0.57342">
        <ele>206.879014</ele>
        <time>2024-11-09T18:32:00.493Z</time>
      </trkpt>
      <trkpt lat="48.72234" lon="-0.57359">
        <ele>207.128352</ele>
        <time>2024-11-09T18:32:04.461Z</time>
      </trkpt>
      <trkpt lat="48.72275" lon="-0.57402">
        <ele>207.950301</ele>
        <time>2024-11-09T18:32:17.953Z</time>
      </trkpt>
      <trkpt lat="48.72293" lon="-0.5743">
        <ele>208.38123</ele>
        <time>2024-11-09T18:32:25.326Z</time>
      </trkpt>
      <trkpt lat="48.72302" lon="-0.57449">
        <ele>208.790693</ele>
        <time>2024-11-09T18:32:29.734Z</time>
      </trkpt>
      <trkpt lat="48.72358" lon="-0.57564">
        <ele>211.489773</ele>
        <time>2024-11-09T18:33:11.878Z</time>
      </trkpt>
      <trkpt lat="48.7237" lon="-0.57604">
        <ele>212.322322</ele>
        <time>2024-11-09T18:33:26.757Z</time>
      </trkpt>
      <trkpt lat="48.72398" lon="-0.57779">
        <ele>216.191311</ele>
        <time>2024-11-09T18:34:25.991Z</time>
      </trkpt>
      <trkpt lat="48.7241" lon="-0.57808">
        <ele>216.970337</ele>
        <time>2024-11-09T18:34:37.049Z</time>
      </trkpt>
      <trkpt lat="48.72421" lon="-0.57851">
        <ele>218.0282</ele>
        <time>2024-11-09T18:34:52.132Z</time>
      </trkpt>
      <trkpt lat="48.72452" lon="-0.58015">
        <ele>221.228117</ele>
        <time>2024-11-09T18:35:46.489Z</time>
      </trkpt>
      <trkpt lat="48.72501" lon="-0.58218">
        <ele>224.11885</ele>
        <time>2024-11-09T18:36:45.737Z</time>
      </trkpt>
      <trkpt lat="48.72544" lon="-0.5818">
        <ele>224.375358</ele>
        <time>2024-11-09T18:36:55.641Z</time>
      </trkpt>
      <trkpt lat="48.72556" lon="-0.58164">
        <ele>224.456579</ele>
        <time>2024-11-09T18:36:58.654Z</time>
      </trkpt>
      <trkpt lat="48.72559" lon="-0.58152">
        <ele>224.499054</ele>
        <time>2024-11-09T18:37:00.235Z</time>
      </trkpt>
      <trkpt lat="48.72567" lon="-0.58141">
        <ele>224.555247</ele>
        <time>2024-11-09T18:37:02.322Z</time>
      </trkpt>
      <trkpt lat="48.72578" lon="-0.58138">
        <ele>224.611401</ele>
        <time>2024-11-09T18:37:04.404Z</time>
      </trkpt>
      <trkpt lat="48.72584" lon="-0.5814">
        <ele>224.639946</ele>
        <time>2024-11-09T18:37:05.437Z</time>
      </trkpt>
      <trkpt lat="48.72592" lon="-0.58147">
        <ele>224.688324</ele>
        <time>2024-11-09T18:37:07.201Z</time>
      </trkpt>
      <trkpt lat="48.72597" lon="-0.5816">
        <ele>224.740251</ele>
        <time>2024-11-09T18:37:09.099Z</time>
      </trkpt>
      <trkpt lat="48.72598" lon="-0.58176">
        <ele>224.792525</ele>
        <time>2024-11-09T18:37:11.101Z</time>
      </trkpt>
      <trkpt lat="48.72594" lon="-0.5819">
        <ele>224.845878</ele>
        <time>2024-11-09T18:37:13.410Z</time>
      </trkpt>
      <trkpt lat="48.72585" lon="-0.58201">
        <ele>224.905386</ele>
        <time>2024-11-09T18:37:15.979Z</time>
      </trkpt>
      <trkpt lat="48.72573" lon="-0.58203">
        <ele>224.994981</ele>
        <time>2024-11-09T18:37:18.614Z</time>
      </trkpt>
      <trkpt lat="48.72565" lon="-0.58198">
        <ele>225.067562</ele>
        <time>2024-11-09T18:37:20.696Z</time>
      </trkpt>
      <trkpt lat="48.7255" lon="-0.58195">
        <ele>225.192324</ele>
        <time>2024-11-09T18:37:24.235Z</time>
      </trkpt>
      <trkpt lat="48.72516" lon="-0.58214">
        <ele>225.494531</ele>
        <time>2024-11-09T18:37:33.094Z</time>
      </trkpt>
      <trkpt lat="48.72501" lon="-0.58218">
        <ele>225.625269</ele>
        <time>2024-11-09T18:37:37.112Z</time>
      </trkpt>
      <trkpt lat="48.7249" lon="-0.58226">
        <ele>225.721407</ele>
        <time>2024-11-09T18:37:40.168Z</time>
      </trkpt>
      <trkpt lat="48.72398" lon="-0.58283">
        <ele>226.325561</ele>
        <time>2024-11-09T18:38:04.048Z</time>
      </trkpt>
      <trkpt lat="48.72337" lon="-0.5832">
        <ele>225.972549</ele>
        <time>2024-11-09T18:38:15.882Z</time>
      </trkpt>
      <trkpt lat="48.72292" lon="-0.58348">
        <ele>225.713262</ele>
        <time>2024-11-09T18:38:24.041Z</time>
      </trkpt>
      <trkpt lat="48.72243" lon="-0.58373">
        <ele>225.435802</ele>
        <time>2024-11-09T18:38:32.657Z</time>
      </trkpt>
      <trkpt lat="48.72169" lon="-0.58393">
        <ele>225.06953</ele>
        <time>2024-11-09T18:38:45.468Z</time>
      </trkpt>
      <trkpt lat="48.72109" lon="-0.58399">
        <ele>224.778149</ele>
        <time>2024-11-09T18:38:56.641Z</time>
      </trkpt>
      <trkpt lat="48.72081" lon="-0.58397">
        <ele>224.645731</ele>
        <time>2024-11-09T18:39:02.070Z</time>
      </trkpt>
      <trkpt lat="48.71889" lon="-0.58382">
        <ele>224.742452</ele>
        <time>2024-11-09T18:39:39.081Z</time>
      </trkpt>
      <trkpt lat="48.71848" lon="-0.58379">
        <ele>225.25475</ele>
        <time>2024-11-09T18:39:48.118Z</time>
      </trkpt>
      <trkpt lat="48.71839" lon="-0.58378">
        <ele>225.369389</ele>
        <time>2024-11-09T18:39:50.208Z</time>
      </trkpt>
      <trkpt lat="48.71838" lon="-0.58358">
        <ele>225.543222</ele>
        <time>2024-11-09T18:39:53.443Z</time>
      </trkpt>
      <trkpt lat="48.71839" lon="-0.58378">
        <ele>225.717056</ele>
        <time>2024-11-09T18:39:56.697Z</time>
      </trkpt>
      <trkpt lat="48.71848" lon="-0.58379">
        <ele>225.831695</ele>
        <time>2024-11-09T18:39:58.653Z</time>
      </trkpt>
      <trkpt lat="48.7186" lon="-0.58458">
        <ele>226.525288</ele>
        <time>2024-11-09T18:40:12.917Z</time>
      </trkpt>
      <trkpt lat="48.71801" lon="-0.5847">
        <ele>227.584272</ele>
        <time>2024-11-09T18:40:38.905Z</time>
      </trkpt>
      <trkpt lat="48.71669" lon="-0.58532">
        <ele>231.770353</ele>
        <time>2024-11-09T18:41:44.829Z</time>
      </trkpt>
      <trkpt lat="48.71632" lon="-0.58539">
        <ele>232.762336</ele>
        <time>2024-11-09T18:42:03.269Z</time>
      </trkpt>
      <trkpt lat="48.71626" lon="-0.58546">
        <ele>232.915504</ele>
        <time>2024-11-09T18:42:06.969Z</time>
      </trkpt>
      <trkpt lat="48.71625" lon="-0.58557">
        <ele>233.074166</ele>
        <time>2024-11-09T18:42:10.780Z</time>
      </trkpt>
      <trkpt lat="48.71598" lon="-0.58616">
        <ele>234.038196</ele>
        <time>2024-11-09T18:42:33.264Z</time>
      </trkpt>
      <trkpt lat="48.71573" lon="-0.58641">
        <ele>234.664571</ele>
        <time>2024-11-09T18:42:46.688Z</time>
      </trkpt>
      <trkpt lat="48.71528" lon="-0.58673">
        <ele>235.66727</ele>
        <time>2024-11-09T18:43:05.668Z</time>
      </trkpt>
      <trkpt lat="48.71524" lon="-0.58682">
        <ele>235.820813</ele>
        <time>2024-11-09T18:43:08.303Z</time>
      </trkpt>
      <trkpt lat="48.71485" lon="-0.58698">
        <ele>235.920593</ele>
        <time>2024-11-09T18:43:21.202Z</time>
      </trkpt>
      <trkpt lat="48.71447" lon="-0.58721">
        <ele>235.409126</ele>
        <time>2024-11-09T18:43:33.440Z</time>
      </trkpt>
      <trkpt lat="48.71434" lon="-0.58723">
        <ele>235.241719</ele>
        <time>2024-11-09T18:43:37.297Z</time>
      </trkpt>
      <trkpt lat="48.71391" lon="-0.58746">
        <ele>234.672976</ele>
        <time>2024-11-09T18:43:49.981Z</time>
      </trkpt>
      <trkpt lat="48.71374" lon="-0.5876">
        <ele>234.434966</ele>
        <time>2024-11-09T18:43:55.216Z</time>
      </trkpt>
      <trkpt lat="48.71333" lon="-0.58803">
        <ele>233.669949</ele>
        <time>2024-11-09T18:44:08.659Z</time>
      </trkpt>
      <trkpt lat="48.71318" lon="-0.58832">
        <ele>233.008856</ele>
        <time>2024-11-09T18:44:15.278Z</time>
      </trkpt>
      <trkpt lat="48.71312" lon="-0.58847">
        <ele>232.711461</ele>
        <time>2024-11-09T18:44:18.230Z</time>
      </trkpt>
      <trkpt lat="48.71282" lon="-0.58884">
        <ele>231.684588</ele>
        <time>2024-11-09T18:44:28.325Z</time>
      </trkpt>
      <trkpt lat="48.71262" lon="-0.58905">
        <ele>231.022777</ele>
        <time>2024-11-09T18:44:34.754Z</time>
      </trkpt>
      <trkpt lat="48.71178" lon="-0.5904">
        <ele>229.502977</ele>
        <time>2024-11-09T18:45:07.051Z</time>
      </trkpt>
      <trkpt lat="48.71164" lon="-0.59088">
        <ele>229.725069</ele>
        <time>2024-11-09T18:45:17.598Z</time>
      </trkpt>
      <trkpt lat="48.71135" lon="-0.59099">
        <ele>229.917334</ele>
        <time>2024-11-09T18:45:29.140Z</time>
      </trkpt>
      <trkpt lat="48.71104" lon="-0.59158">
        <ele>230.241154</ele>
        <time>2024-11-09T18:45:52.438Z</time>
      </trkpt>
      <trkpt lat="48.71092" lon="-0.59233">
        <ele>231.542604</ele>
        <time>2024-11-09T18:46:20.115Z</time>
      </trkpt>
      <trkpt lat="48.71083" lon="-0.59291">
        <ele>232.809402</ele>
        <time>2024-11-09T18:46:38.438Z</time>
      </trkpt>
      <trkpt lat="48.71078" lon="-0.59297">
        <ele>233.024089</ele>
        <time>2024-11-09T18:46:41.499Z</time>
      </trkpt>
      <trkpt lat="48.71065" lon="-0.59303">
        <ele>233.477309</ele>
        <time>2024-11-09T18:46:47.744Z</time>
      </trkpt>
      <trkpt lat="48.71049" lon="-0.59302">
        <ele>233.989873</ele>
        <time>2024-11-09T18:46:53.830Z</time>
      </trkpt>
      <trkpt lat="48.71037" lon="-0.59306">
        <ele>234.366739</ele>
        <time>2024-11-09T18:46:57.998Z</time>
      </trkpt>
      <trkpt lat="48.70967" lon="-0.59345">
        <ele>236.710078</ele>
        <time>2024-11-09T18:47:20.692Z</time>
      </trkpt>
      <trkpt lat="48.70943" lon="-0.59354">
        <ele>237.376103</ele>
        <time>2024-11-09T18:47:27.091Z</time>
      </trkpt>
      <trkpt lat="48.70927" lon="-0.59356">
        <ele>237.825933</ele>
        <time>2024-11-09T18:47:31.535Z</time>
      </trkpt>
      <trkpt lat="48.70917" lon="-0.59348">
        <ele>238.133935</ele>
        <time>2024-11-09T18:47:34.724Z</time>
      </trkpt>
      <trkpt lat="48.70899" lon="-0.59359">
        <ele>238.66019</ele>
        <time>2024-11-09T18:47:40.385Z</time>
      </trkpt>
      <trkpt lat="48.70863" lon="-0.59375">
        <ele>239.712095</ele>
        <time>2024-11-09T18:47:52.922Z</time>
      </trkpt>
      <trkpt lat="48.70848" lon="-0.59392">
        <ele>240.216825</ele>
        <time>2024-11-09T18:47:59.615Z</time>
      </trkpt>
      <trkpt lat="48.70841" lon="-0.59384">
        <ele>240.461645</ele>
        <time>2024-11-09T18:48:04.242Z</time>
      </trkpt>
      <trkpt lat="48.70759" lon="-0.59403">
        <ele>243.195385</ele>
        <time>2024-11-09T18:48:50.456Z</time>
      </trkpt>
      <trkpt lat="48.7068" lon="-0.59426">
        <ele>246.043429</ele>
        <time>2024-11-09T18:49:31.774Z</time>
      </trkpt>
      <trkpt lat="48.70715" lon="-0.59533">
        <ele>247.807527</ele>
        <time>2024-11-09T18:50:04.315Z</time>
      </trkpt>
      <trkpt lat="48.70442" lon="-0.59811">
        <ele>250.185046</ele>
        <time>2024-11-09T18:51:56.131Z</time>
      </trkpt>
      <trkpt lat="48.70362" lon="-0.59896">
        <ele>251.961624</ele>
        <time>2024-11-09T18:52:34.350Z</time>
      </trkpt>
      <trkpt lat="48.70281" lon="-0.5995">
        <ele>253.575137</ele>
        <time>2024-11-09T18:53:14.344Z</time>
      </trkpt>
      <trkpt lat="48.70149" lon="-0.60045">
        <ele>256.324076</ele>
        <time>2024-11-09T18:54:19.526Z</time>
      </trkpt>
      <trkpt lat="48.70036" lon="-0.59696">
        <ele>253.966713</ele>
        <time>2024-11-09T18:55:01.539Z</time>
      </trkpt>
      <trkpt lat="48.6986" lon="-0.59147">
        <ele>247.176101</ele>
        <time>2024-11-09T18:56:54.789Z</time>
      </trkpt>
      <trkpt lat="48.6992" lon="-0.59071">
        <ele>245.526963</ele>
        <time>2024-11-09T18:57:15.397Z</time>
      </trkpt>
      <trkpt lat="48.69931" lon="-0.59014">
        <ele>244.735232</ele>
        <time>2024-11-09T18:57:25.742Z</time>
      </trkpt>
      <trkpt lat="48.69928" lon="-0.58977">
        <ele>244.244243</ele>
        <time>2024-11-09T18:57:32.215Z</time>
      </trkpt>
      <trkpt lat="48.69897" lon="-0.58876">
        <ele>242.766672</ele>
        <time>2024-11-09T18:57:52.386Z</time>
      </trkpt>
      <trkpt lat="48.69862" lon="-0.58762">
        <ele>241.616921</ele>
        <time>2024-11-09T18:58:16.182Z</time>
      </trkpt>
      <trkpt lat="48.69851" lon="-0.58742">
        <ele>241.500293</ele>
        <time>2024-11-09T18:58:21.308Z</time>
      </trkpt>
      <trkpt lat="48.69836" lon="-0.58725">
        <ele>241.374331</ele>
        <time>2024-11-09T18:58:26.958Z</time>
      </trkpt>
      <trkpt lat="48.69787" lon="-0.58686">
        <ele>241.00802</ele>
        <time>2024-11-09T18:58:42.830Z</time>
      </trkpt>
      <trkpt lat="48.69747" lon="-0.58658">
        <ele>240.714592</ele>
        <time>2024-11-09T18:58:56.278Z</time>
      </trkpt>
      <trkpt lat="48.69738" lon="-0.58647">
        <ele>240.941464</ele>
        <time>2024-11-09T18:59:00.676Z</time>
      </trkpt>
      <trkpt lat="48.69726" lon="-0.58622">
        <ele>241.785015</ele>
        <time>2024-11-09T18:59:08.153Z</time>
      </trkpt>
      <trkpt lat="48.69723" lon="-0.58621">
        <ele>241.919659</ele>
        <time>2024-11-09T18:59:09.361Z</time>
      </trkpt>
      <trkpt lat="48.69715" lon="-0.58622">
        <ele>242.26967</ele>
        <time>2024-11-09T18:59:13.122Z</time>
      </trkpt>
      <trkpt lat="48.69715" lon="-0.58622">
        <ele>242.26967</ele>
        <time>2024-11-09T18:59:13.139Z</time>
      </trkpt>
      <trkpt lat="48.69699" lon="-0.58598">
        <ele>243.198748</ele>
        <time>2024-11-09T18:59:22.593Z</time>
      </trkpt>
      <trkpt lat="48.69668" lon="-0.58645">
        <ele>245.015714</ele>
        <time>2024-11-09T18:59:41.088Z</time>
      </trkpt>
      <trkpt lat="48.69639" lon="-0.58715">
        <ele>247.320104</ele>
        <time>2024-11-09T19:00:04.562Z</time>
      </trkpt>
      <trkpt lat="48.69585" lon="-0.588">
        <ele>252.533701</ele>
        <time>2024-11-09T19:00:38.049Z</time>
      </trkpt>
      <trkpt lat="48.6953" lon="-0.58885">
        <ele>258.501346</ele>
        <time>2024-11-09T19:01:11.549Z</time>
      </trkpt>
      <trkpt lat="48.69476" lon="-0.5897">
        <ele>262.777031</ele>
        <time>2024-11-09T19:01:45.002Z</time>
      </trkpt>
      <trkpt lat="48.69478" lon="-0.58976">
        <ele>262.892265</ele>
        <time>2024-11-09T19:01:47.521Z</time>
      </trkpt>
      <trkpt lat="48.69476" lon="-0.58983">
        <ele>263.005627</ele>
        <time>2024-11-09T19:01:49.988Z</time>
      </trkpt>
      <trkpt lat="48.69495" lon="-0.59035">
        <ele>263.966068</ele>
        <time>2024-11-09T19:02:08.859Z</time>
      </trkpt>
      <trkpt lat="48.69494" lon="-0.59064">
        <ele>264.449726</ele>
        <time>2024-11-09T19:02:17.108Z</time>
      </trkpt>
      <trkpt lat="48.69499" lon="-0.59093">
        <ele>264.93466</ele>
        <time>2024-11-09T19:02:24.639Z</time>
      </trkpt>
      <trkpt lat="48.69512" lon="-0.59162">
        <ele>266.082952</ele>
        <time>2024-11-09T19:02:39.557Z</time>
      </trkpt>
      <trkpt lat="48.69529" lon="-0.59202">
        <ele>266.029233</ele>
        <time>2024-11-09T19:02:48.761Z</time>
      </trkpt>
      <trkpt lat="48.69531" lon="-0.59207">
        <ele>265.965339</ele>
        <time>2024-11-09T19:02:49.793Z</time>
      </trkpt>
      <trkpt lat="48.69536" lon="-0.59292">
        <ele>264.95864</ele>
        <time>2024-11-09T19:03:05.573Z</time>
      </trkpt>
      <trkpt lat="48.6954" lon="-0.59362">
        <ele>264.12312</ele>
        <time>2024-11-09T19:03:18.232Z</time>
      </trkpt>
      <trkpt lat="48.69539" lon="-0.59363">
        <ele>264.108862</ele>
        <time>2024-11-09T19:03:18.441Z</time>
      </trkpt>
      <trkpt lat="48.69531" lon="-0.59374">
        <ele>263.924058</ele>
        <time>2024-11-09T19:03:21.221Z</time>
      </trkpt>
      <trkpt lat="48.69517" lon="-0.59383">
        <ele>263.645729</ele>
        <time>2024-11-09T19:03:25.387Z</time>
      </trkpt>
      <trkpt lat="48.6951" lon="-0.59387">
        <ele>263.520129</ele>
        <time>2024-11-09T19:03:27.270Z</time>
      </trkpt>
      <trkpt lat="48.69495" lon="-0.5939">
        <ele>263.250227</ele>
        <time>2024-11-09T19:03:31.312Z</time>
      </trkpt>
      <trkpt lat="48.69476" lon="-0.59385">
        <ele>262.809512</ele>
        <time>2024-11-09T19:03:36.693Z</time>
      </trkpt>
      <trkpt lat="48.69476" lon="-0.59385">
        <ele>262.80672</ele>
        <time>2024-11-09T19:03:36.726Z</time>
      </trkpt>
      <trkpt lat="48.69448" lon="-0.59414">
        <ele>262.011276</ele>
        <time>2024-11-09T19:03:45.974Z</time>
      </trkpt>
      <trkpt lat="48.694" lon="-0.59452">
        <ele>260.758335</ele>
        <time>2024-11-09T19:04:00.642Z</time>
      </trkpt>
      <trkpt lat="48.69396" lon="-0.59458">
        <ele>260.62169</ele>
        <time>2024-11-09T19:04:02.257Z</time>
      </trkpt>
      <trkpt lat="48.69361" lon="-0.59509">
        <ele>259.502161</ele>
        <time>2024-11-09T19:04:15.432Z</time>
      </trkpt>
      <trkpt lat="48.69267" lon="-0.59577">
        <ele>255.62117</ele>
        <time>2024-11-09T19:04:42.544Z</time>
      </trkpt>
      <trkpt lat="48.69166" lon="-0.59256">
        <ele>245.747856</ele>
        <time>2024-11-09T19:05:13.771Z</time>
      </trkpt>
      <trkpt lat="48.68987" lon="-0.58693">
        <ele>236.298329</ele>
        <time>2024-11-09T19:06:17.454Z</time>
      </trkpt>
      <trkpt lat="48.68972" lon="-0.58642">
        <ele>235.655507</ele>
        <time>2024-11-09T19:06:23.293Z</time>
      </trkpt>
      <trkpt lat="48.68795" lon="-0.58711">
        <ele>231.90188</ele>
        <time>2024-11-09T19:06:54.124Z</time>
      </trkpt>
      <trkpt lat="48.68692" lon="-0.5875">
        <ele>228.825346</ele>
        <time>2024-11-09T19:07:10.101Z</time>
      </trkpt>
      <trkpt lat="48.68567" lon="-0.58787">
        <ele>225.063832</ele>
        <time>2024-11-09T19:07:29.581Z</time>
      </trkpt>
      <trkpt lat="48.68561" lon="-0.58798">
        <ele>224.790599</ele>
        <time>2024-11-09T19:07:31.053Z</time>
      </trkpt>
      <trkpt lat="48.68561" lon="-0.58798">
        <ele>224.790599</ele>
        <time>2024-11-09T19:07:31.056Z</time>
      </trkpt>
      <trkpt lat="48.68534" lon="-0.59008">
        <ele>222.754103</ele>
        <time>2024-11-09T19:07:53.452Z</time>
      </trkpt>
      <trkpt lat="48.68527" lon="-0.59035">
        <ele>222.748249</ele>
        <time>2024-11-09T19:07:59.010Z</time>
      </trkpt>
      <trkpt lat="48.68497" lon="-0.59042">
        <ele>222.73913</ele>
        <time>2024-11-09T19:08:08.686Z</time>
      </trkpt>
      <trkpt lat="48.68511" lon="-0.59131">
        <ele>222.856926</ele>
        <time>2024-11-09T19:08:36.154Z</time>
      </trkpt>
      <trkpt lat="48.68512" lon="-0.59148">
        <ele>223.387743</ele>
        <time>2024-11-09T19:08:41.899Z</time>
      </trkpt>
      <trkpt lat="48.68513" lon="-0.59174">
        <ele>224.226292</ele>
        <time>2024-11-09T19:08:50.843Z</time>
      </trkpt>
      <trkpt lat="48.68532" lon="-0.5924">
        <ele>226.519419</ele>
        <time>2024-11-09T19:09:17.273Z</time>
      </trkpt>
      <trkpt lat="48.68534" lon="-0.59262">
        <ele>227.217043</ele>
        <time>2024-11-09T19:09:25.913Z</time>
      </trkpt>
      <trkpt lat="48.68539" lon="-0.59274">
        <ele>227.658613</ele>
        <time>2024-11-09T19:09:31.591Z</time>
      </trkpt>
      <trkpt lat="48.68547" lon="-0.59284">
        <ele>228.197417</ele>
        <time>2024-11-09T19:09:38.556Z</time>
      </trkpt>
      <trkpt lat="48.68546" lon="-0.59237">
        <ele>229.716367</ele>
        <time>2024-11-09T19:09:58.656Z</time>
      </trkpt>
      <trkpt lat="48.68552" lon="-0.59218">
        <ele>230.381104</ele>
        <time>2024-11-09T19:10:07.320Z</time>
      </trkpt>
      <trkpt lat="48.68565" lon="-0.59212">
        <ele>231.027167</ele>
        <time>2024-11-09T19:10:15.305Z</time>
      </trkpt>
      <trkpt lat="48.68575" lon="-0.59329">
        <ele>234.290999</ele>
        <time>2024-11-09T19:10:56.512Z</time>
      </trkpt>
      <trkpt lat="48.68558" lon="-0.59371">
        <ele>235.643315</ele>
        <time>2024-11-09T19:11:14.593Z</time>
      </trkpt>
      <trkpt lat="48.6855" lon="-0.59392">
        <ele>236.311598</ele>
        <time>2024-11-09T19:11:23.199Z</time>
      </trkpt>
      <trkpt lat="48.68518" lon="-0.59524">
        <ele>240.203257</ele>
        <time>2024-11-09T19:12:06.826Z</time>
      </trkpt>
      <trkpt lat="48.68509" lon="-0.59589">
        <ele>242.083757</ele>
        <time>2024-11-09T19:12:27.878Z</time>
      </trkpt>
      <trkpt lat="48.68502" lon="-0.59668">
        <ele>244.354155</ele>
        <time>2024-11-09T19:12:56.142Z</time>
      </trkpt>
      <trkpt lat="48.68507" lon="-0.59713">
        <ele>245.662962</ele>
        <time>2024-11-09T19:13:13.942Z</time>
      </trkpt>
      <trkpt lat="48.68509" lon="-0.59735">
        <ele>246.309983</ele>
        <time>2024-11-09T19:13:23.172Z</time>
      </trkpt>
      <trkpt lat="48.68534" lon="-0.59778">
        <ele>247.64308</ele>
        <time>2024-11-09T19:13:46.449Z</time>
      </trkpt>
      <trkpt lat="48.68575" lon="-0.59824">
        <ele>249.424073</ele>
        <time>2024-11-09T19:14:16.958Z</time>
      </trkpt>
      <trkpt lat="48.68608" lon="-0.59831">
        <ele>250.559089</ele>
        <time>2024-11-09T19:14:33.845Z</time>
      </trkpt>
      <trkpt lat="48.68611" lon="-0.59843">
        <ele>250.841763</ele>
        <time>2024-11-09T19:14:37.649Z</time>
      </trkpt>
      <trkpt lat="48.6862" lon="-0.5984">
        <ele>251.14893</ele>
        <time>2024-11-09T19:14:41.656Z</time>
      </trkpt>
      <trkpt lat="48.68622" lon="-0.59843">
        <ele>251.262686</ele>
        <time>2024-11-09T19:14:43.067Z</time>
      </trkpt>
      <trkpt lat="48.68628" lon="-0.59879">
        <ele>252.106292</ele>
        <time>2024-11-09T19:14:52.921Z</time>
      </trkpt>
      <trkpt lat="48.68601" lon="-0.59988">
        <ele>252.251818</ele>
        <time>2024-11-09T19:15:15.603Z</time>
      </trkpt>
      <trkpt lat="48.68571" lon="-0.60083">
        <ele>251.589387</ele>
        <time>2024-11-09T19:15:34.266Z</time>
      </trkpt>
      <trkpt lat="48.68571" lon="-0.60146">
        <ele>251.193923</ele>
        <time>2024-11-09T19:15:45.947Z</time>
      </trkpt>
      <trkpt lat="48.68778" lon="-0.60634">
        <ele>255.572644</ele>
        <time>2024-11-09T19:18:12.356Z</time>
      </trkpt>
      <trkpt lat="48.68829" lon="-0.60733">
        <ele>257.220797</ele>
        <time>2024-11-09T19:18:48.552Z</time>
      </trkpt>
      <trkpt lat="48.68898" lon="-0.60806">
        <ele>258.879503</ele>
        <time>2024-11-09T19:19:23.869Z</time>
      </trkpt>
      <trkpt lat="48.68907" lon="-0.60817">
        <ele>259.143505</ele>
        <time>2024-11-09T19:19:28.411Z</time>
      </trkpt>
      <trkpt lat="48.68919" lon="-0.60833">
        <ele>259.515927</ele>
        <time>2024-11-09T19:19:34.586Z</time>
      </trkpt>
      <trkpt lat="48.68927" lon="-0.60865">
        <ele>260.047969</ele>
        <time>2024-11-09T19:19:43.467Z</time>
      </trkpt>
      <trkpt lat="48.68929" lon="-0.60904">
        <ele>260.641957</ele>
        <time>2024-11-09T19:19:53.542Z</time>
      </trkpt>
      <trkpt lat="48.68947" lon="-0.60917">
        <ele>261.105046</ele>
        <time>2024-11-09T19:20:01.648Z</time>
      </trkpt>
      <trkpt lat="48.68929" lon="-0.60904">
        <ele>261.568134</ele>
        <time>2024-11-09T19:20:10.155Z</time>
      </trkpt>
      <trkpt lat="48.68928" lon="-0.6091">
        <ele>261.665948</ele>
        <time>2024-11-09T19:20:11.985Z</time>
      </trkpt>
      <trkpt lat="48.68914" lon="-0.60924">
        <ele>262.046823</ele>
        <time>2024-11-09T19:20:19.337Z</time>
      </trkpt>
      <trkpt lat="48.68859" lon="-0.60958">
        <ele>263.506316</ele>
        <time>2024-11-09T19:20:47.952Z</time>
      </trkpt>
      <trkpt lat="48.68832" lon="-0.6099">
        <ele>264.489568</ele>
        <time>2024-11-09T19:21:06.088Z</time>
      </trkpt>
      <trkpt lat="48.68752" lon="-0.61086">
        <ele>267.384593</ele>
        <time>2024-11-09T19:21:57.637Z</time>
      </trkpt>
      <trkpt lat="48.68782" lon="-0.61157">
        <ele>267.316357</ele>
        <time>2024-11-09T19:22:17.153Z</time>
      </trkpt>
      <trkpt lat="48.68777" lon="-0.6119">
        <ele>266.56534</ele>
        <time>2024-11-09T19:22:23.322Z</time>
      </trkpt>
      <trkpt lat="48.68772" lon="-0.61224">
        <ele>265.800587</ele>
        <time>2024-11-09T19:22:29.366Z</time>
      </trkpt>
      <trkpt lat="48.68752" lon="-0.61258">
        <ele>264.781071</ele>
        <time>2024-11-09T19:22:37.182Z</time>
      </trkpt>
      <trkpt lat="48.68746" lon="-0.61268">
        <ele>264.481033</ele>
        <time>2024-11-09T19:22:39.390Z</time>
      </trkpt>
      <trkpt lat="48.68706" lon="-0.61306">
        <ele>262.876398</ele>
        <time>2024-11-09T19:22:50.647Z</time>
      </trkpt>
      <trkpt lat="48.68675" lon="-0.61281">
        <ele>261.136556</ele>
        <time>2024-11-09T19:22:58.648Z</time>
      </trkpt>
      <trkpt lat="48.68623" lon="-0.61258">
        <ele>257.188441</ele>
        <time>2024-11-09T19:23:10.730Z</time>
      </trkpt>
      <trkpt lat="48.68601" lon="-0.61253">
        <ele>255.575294</ele>
        <time>2024-11-09T19:23:15.724Z</time>
      </trkpt>
      <trkpt lat="48.68571" lon="-0.61265">
        <ele>253.361972</ele>
        <time>2024-11-09T19:23:22.549Z</time>
      </trkpt>
      <trkpt lat="48.68539" lon="-0.61269">
        <ele>250.991924</ele>
        <time>2024-11-09T19:23:29.781Z</time>
      </trkpt>
      <trkpt lat="48.68504" lon="-0.61254">
        <ele>248.53366</ele>
        <time>2024-11-09T19:23:37.929Z</time>
      </trkpt>
      <trkpt lat="48.68443" lon="-0.61242">
        <ele>245.115031</ele>
        <time>2024-11-09T19:23:52.320Z</time>
      </trkpt>
      <trkpt lat="48.68421" lon="-0.61247">
        <ele>243.848073</ele>
        <time>2024-11-09T19:23:57.769Z</time>
      </trkpt>
      <trkpt lat="48.68411" lon="-0.61256">
        <ele>243.23707</ele>
        <time>2024-11-09T19:24:00.416Z</time>
      </trkpt>
      <trkpt lat="48.68401" lon="-0.61252">
        <ele>242.661425</ele>
        <time>2024-11-09T19:24:01.894Z</time>
      </trkpt>
      <trkpt lat="48.68269" lon="-0.61246">
        <ele>236.131841</ele>
        <time>2024-11-09T19:24:20.901Z</time>
      </trkpt>
      <trkpt lat="48.68126" lon="-0.61235">
        <ele>230.041673</ele>
        <time>2024-11-09T19:24:41.836Z</time>
      </trkpt>
      <trkpt lat="48.68115" lon="-0.61266">
        <ele>229.142491</ele>
        <time>2024-11-09T19:24:45.302Z</time>
      </trkpt>
      <trkpt lat="48.68076" lon="-0.6133">
        <ele>226.931085</ele>
        <time>2024-11-09T19:24:53.901Z</time>
      </trkpt>
      <trkpt lat="48.68066" lon="-0.61354">
        <ele>226.199674</ele>
        <time>2024-11-09T19:24:56.781Z</time>
      </trkpt>
      <trkpt lat="48.6804" lon="-0.61358">
        <ele>225.232408</ele>
        <time>2024-11-09T19:25:03.214Z</time>
      </trkpt>
      <trkpt lat="48.67969" lon="-0.61406">
        <ele>222.201248</ele>
        <time>2024-11-09T19:25:22.775Z</time>
      </trkpt>
      <trkpt lat="48.67953" lon="-0.61412">
        <ele>221.535654</ele>
        <time>2024-11-09T19:25:27.048Z</time>
      </trkpt>
      <trkpt lat="48.67888" lon="-0.61432">
        <ele>218.965636</ele>
        <time>2024-11-09T19:25:43.477Z</time>
      </trkpt>
      <trkpt lat="48.67839" lon="-0.61442">
        <ele>217.04018</ele>
        <time>2024-11-09T19:25:55.761Z</time>
      </trkpt>
      <trkpt lat="48.67817" lon="-0.61447">
        <ele>216.213037</ele>
        <time>2024-11-09T19:26:01.241Z</time>
      </trkpt>
      <trkpt lat="48.67732" lon="-0.61455">
        <ele>213.03087</ele>
        <time>2024-11-09T19:26:22.559Z</time>
      </trkpt>
      <trkpt lat="48.67685" lon="-0.61457">
        <ele>211.273283</ele>
        <time>2024-11-09T19:26:34.569Z</time>
      </trkpt>
      <trkpt lat="48.67654" lon="-0.61458">
        <ele>210.198485</ele>
        <time>2024-11-09T19:26:42.575Z</time>
      </trkpt>
      <trkpt lat="48.67578" lon="-0.61436">
        <ele>207.786319</ele>
        <time>2024-11-09T19:27:03.403Z</time>
      </trkpt>
      <trkpt lat="48.67578" lon="-0.61436">
        <ele>207.786319</ele>
        <time>2024-11-09T19:27:03.415Z</time>
      </trkpt>
      <trkpt lat="48.67523" lon="-0.61395">
        <ele>205.878156</ele>
        <time>2024-11-09T19:27:29.562Z</time>
      </trkpt>
      <trkpt lat="48.67469" lon="-0.61353">
        <ele>203.467246</ele>
        <time>2024-11-09T19:27:55.775Z</time>
      </trkpt>
      <trkpt lat="48.67404" lon="-0.6138">
        <ele>200.339776</ele>
        <time>2024-11-09T19:28:24.496Z</time>
      </trkpt>
      <trkpt lat="48.67339" lon="-0.61406">
        <ele>197.207002</ele>
        <time>2024-11-09T19:28:53.263Z</time>
      </trkpt>
      <trkpt lat="48.67315" lon="-0.61342">
        <ele>196.479466</ele>
        <time>2024-11-09T19:29:00.690Z</time>
      </trkpt>
      <trkpt lat="48.67309" lon="-0.61318">
        <ele>196.426332</ele>
        <time>2024-11-09T19:29:03.512Z</time>
      </trkpt>
      <trkpt lat="48.67306" lon="-0.61293">
        <ele>196.373558</ele>
        <time>2024-11-09T19:29:06.489Z</time>
      </trkpt>
      <trkpt lat="48.67309" lon="-0.61198">
        <ele>196.17582</ele>
        <time>2024-11-09T19:29:20.341Z</time>
      </trkpt>
      <trkpt lat="48.67306" lon="-0.61151">
        <ele>196.077689</ele>
        <time>2024-11-09T19:29:29.113Z</time>
      </trkpt>
      <trkpt lat="48.6728" lon="-0.6108">
        <ele>197.144089</ele>
        <time>2024-11-09T19:29:46.860Z</time>
      </trkpt>
      <trkpt lat="48.67274" lon="-0.61053">
        <ele>197.734768</ele>
        <time>2024-11-09T19:29:54.059Z</time>
      </trkpt>
      <trkpt lat="48.67246" lon="-0.60871">
        <ele>201.558942</ele>
        <time>2024-11-09T19:30:42.975Z</time>
      </trkpt>
      <trkpt lat="48.67233" lon="-0.60755">
        <ele>202.58659</ele>
        <time>2024-11-09T19:31:04.452Z</time>
      </trkpt>
      <trkpt lat="48.67234" lon="-0.60695">
        <ele>203.102729</ele>
        <time>2024-11-09T19:31:12.707Z</time>
      </trkpt>
      <trkpt lat="48.67238" lon="-0.60644">
        <ele>203.538202</ele>
        <time>2024-11-09T19:31:20.455Z</time>
      </trkpt>
      <trkpt lat="48.67245" lon="-0.60588">
        <ele>204.055496</ele>
        <time>2024-11-09T19:31:30.199Z</time>
      </trkpt>
      <trkpt lat="48.67336" lon="-0.60531">
        <ele>205.702464</ele>
        <time>2024-11-09T19:31:56.466Z</time>
      </trkpt>
      <trkpt lat="48.67332" lon="-0.60509">
        <ele>205.948725</ele>
        <time>2024-11-09T19:32:01.264Z</time>
      </trkpt>
      <trkpt lat="48.67316" lon="-0.60469">
        <ele>206.468383</ele>
        <time>2024-11-09T19:32:11.405Z</time>
      </trkpt>
      <trkpt lat="48.67315" lon="-0.60455">
        <ele>206.632476</ele>
        <time>2024-11-09T19:32:14.379Z</time>
      </trkpt>
      <trkpt lat="48.67317" lon="-0.6044">
        <ele>206.792325</ele>
        <time>2024-11-09T19:32:17.328Z</time>
      </trkpt>
      <trkpt lat="48.67335" lon="-0.60378">
        <ele>208.58323</ele>
        <time>2024-11-09T19:32:30.979Z</time>
      </trkpt>
      <trkpt lat="48.67362" lon="-0.60305">
        <ele>211.061369</ele>
        <time>2024-11-09T19:32:57.303Z</time>
      </trkpt>
      <trkpt lat="48.67374" lon="-0.60285">
        <ele>211.862747</ele>
        <time>2024-11-09T19:33:07.295Z</time>
      </trkpt>
      <trkpt lat="48.67405" lon="-0.60259">
        <ele>213.458968</ele>
        <time>2024-11-09T19:33:28.631Z</time>
      </trkpt>
      <trkpt lat="48.67463" lon="-0.60222">
        <ele>217.176931</ele>
        <time>2024-11-09T19:34:11.451Z</time>
      </trkpt>
      <trkpt lat="48.67601" lon="-0.60217">
        <ele>227.602681</ele>
        <time>2024-11-09T19:35:52.297Z</time>
      </trkpt>
      <trkpt lat="48.67663" lon="-0.60247">
        <ele>230.77193</ele>
        <time>2024-11-09T19:36:32.942Z</time>
      </trkpt>
      <trkpt lat="48.67709" lon="-0.60255">
        <ele>232.701587</ele>
        <time>2024-11-09T19:36:57.822Z</time>
      </trkpt>
      <trkpt lat="48.67731" lon="-0.60249">
        <ele>233.63509</ele>
        <time>2024-11-09T19:37:08.620Z</time>
      </trkpt>
      <trkpt lat="48.67762" lon="-0.60232">
        <ele>235.050477</ele>
        <time>2024-11-09T19:37:23.839Z</time>
      </trkpt>
      <trkpt lat="48.6781" lon="-0.60209">
        <ele>235.977465</ele>
        <time>2024-11-09T19:37:38.296Z</time>
      </trkpt>
      <trkpt lat="48.67861" lon="-0.60185">
        <ele>235.537711</ele>
        <time>2024-11-09T19:37:52.254Z</time>
      </trkpt>
      <trkpt lat="48.67894" lon="-0.60157">
        <ele>235.225292</ele>
        <time>2024-11-09T19:37:59.561Z</time>
      </trkpt>
      <trkpt lat="48.67946" lon="-0.60103">
        <ele>234.709982</ele>
        <time>2024-11-09T19:38:09.395Z</time>
      </trkpt>
      <trkpt lat="48.67932" lon="-0.60032">
        <ele>231.774568</ele>
        <time>2024-11-09T19:38:16.265Z</time>
      </trkpt>
      <trkpt lat="48.67888" lon="-0.59891">
        <ele>225.3639</ele>
        <time>2024-11-09T19:38:30.015Z</time>
      </trkpt>
      <trkpt lat="48.67884" lon="-0.59859">
        <ele>224.063932</ele>
        <time>2024-11-09T19:38:32.828Z</time>
      </trkpt>
      <trkpt lat="48.67885" lon="-0.59725">
        <ele>219.870739</ele>
        <time>2024-11-09T19:38:45.057Z</time>
      </trkpt>
      <trkpt lat="48.67879" lon="-0.59658">
        <ele>217.833358</ele>
        <time>2024-11-09T19:38:51.542Z</time>
      </trkpt>
      <trkpt lat="48.6792" lon="-0.59653">
        <ele>215.988443</ele>
        <time>2024-11-09T19:38:57.721Z</time>
      </trkpt>
      <trkpt lat="48.67946" lon="-0.59599">
        <ele>214.878563</ele>
        <time>2024-11-09T19:39:05.103Z</time>
      </trkpt>
      <trkpt lat="48.67964" lon="-0.59523">
        <ele>214.093321</ele>
        <time>2024-11-09T19:39:14.502Z</time>
      </trkpt>
      <trkpt lat="48.68004" lon="-0.59413">
        <ele>212.882466</ele>
        <time>2024-11-09T19:39:29.724Z</time>
      </trkpt>
      <trkpt lat="48.68004" lon="-0.59413">
        <ele>212.882466</ele>
        <time>2024-11-09T19:39:29.780Z</time>
      </trkpt>
      <trkpt lat="48.68004" lon="-0.59413">
        <ele>212.882466</ele>
        <time>2024-11-09T19:39:29.780Z</time>
      </trkpt>
      <trkpt lat="48.68002" lon="-0.59411">
        <ele>212.845344</ele>
        <time>2024-11-09T19:39:30.863Z</time>
      </trkpt>
      <trkpt lat="48.68013" lon="-0.59312">
        <ele>211.451662</ele>
        <time>2024-11-09T19:39:59.416Z</time>
      </trkpt>
      <trkpt lat="48.68024" lon="-0.59212">
        <ele>209.974335</ele>
        <time>2024-11-09T19:40:27.981Z</time>
      </trkpt>
      <trkpt lat="48.68018" lon="-0.59129">
        <ele>208.752197</ele>
        <time>2024-11-09T19:40:51.612Z</time>
      </trkpt>
      <trkpt lat="48.68003" lon="-0.59036">
        <ele>207.042025</ele>
        <time>2024-11-09T19:41:18.693Z</time>
      </trkpt>
      <trkpt lat="48.68062" lon="-0.58973">
        <ele>205.080782</ele>
        <time>2024-11-09T19:41:49.548Z</time>
      </trkpt>
      <trkpt lat="48.68072" lon="-0.58949">
        <ele>204.575823</ele>
        <time>2024-11-09T19:41:57.503Z</time>
      </trkpt>
      <trkpt lat="48.68082" lon="-0.5893">
        <ele>204.127986</ele>
        <time>2024-11-09T19:42:01.889Z</time>
      </trkpt>
      <trkpt lat="48.68086" lon="-0.58922">
        <ele>203.946149</ele>
        <time>2024-11-09T19:42:03.657Z</time>
      </trkpt>
      <trkpt lat="48.6809" lon="-0.58916">
        <ele>203.801204</ele>
        <time>2024-11-09T19:42:05.108Z</time>
      </trkpt>
      <trkpt lat="48.68081" lon="-0.58904">
        <ele>203.52642</ele>
        <time>2024-11-09T19:42:06.963Z</time>
      </trkpt>
      <trkpt lat="48.68051" lon="-0.58849">
        <ele>202.423183</ele>
        <time>2024-11-09T19:42:14.367Z</time>
      </trkpt>
      <trkpt lat="48.68023" lon="-0.58791">
        <ele>201.298135</ele>
        <time>2024-11-09T19:42:21.827Z</time>
      </trkpt>
      <trkpt lat="48.67982" lon="-0.58721">
        <ele>199.839705</ele>
        <time>2024-11-09T19:42:31.975Z</time>
      </trkpt>
      <trkpt lat="48.6795" lon="-0.58685">
        <ele>199.388741</ele>
        <time>2024-11-09T19:42:38.505Z</time>
      </trkpt>
      <trkpt lat="48.67904" lon="-0.58663">
        <ele>199.070176</ele>
        <time>2024-11-09T19:42:47.172Z</time>
      </trkpt>
      <trkpt lat="48.67858" lon="-0.58657">
        <ele>198.767876</ele>
        <time>2024-11-09T19:42:56.283Z</time>
      </trkpt>
      <trkpt lat="48.67806" lon="-0.58668">
        <ele>198.426743</ele>
        <time>2024-11-09T19:43:07.790Z</time>
      </trkpt>
      <trkpt lat="48.67788" lon="-0.58667">
        <ele>198.26807</ele>
        <time>2024-11-09T19:43:11.402Z</time>
      </trkpt>
      <trkpt lat="48.67759" lon="-0.58659">
        <ele>197.967655</ele>
        <time>2024-11-09T19:43:17.402Z</time>
      </trkpt>
      <trkpt lat="48.67721" lon="-0.58637">
        <ele>197.573426</ele>
        <time>2024-11-09T19:43:24.832Z</time>
      </trkpt>
      <trkpt lat="48.67694" lon="-0.58602">
        <ele>197.221771</ele>
        <time>2024-11-09T19:43:35.036Z</time>
      </trkpt>
      <trkpt lat="48.6766" lon="-0.58544">
        <ele>196.7184</ele>
        <time>2024-11-09T19:43:49.297Z</time>
      </trkpt>
      <trkpt lat="48.67644" lon="-0.58493">
        <ele>196.03533</ele>
        <time>2024-11-09T19:43:59.705Z</time>
      </trkpt>
      <trkpt lat="48.67624" lon="-0.5837">
        <ele>194.304303</ele>
        <time>2024-11-09T19:44:22.281Z</time>
      </trkpt>
      <trkpt lat="48.67608" lon="-0.58312">
        <ele>193.433838</ele>
        <time>2024-11-09T19:44:33.483Z</time>
      </trkpt>
      <trkpt lat="48.67591" lon="-0.58279">
        <ele>192.859716</ele>
        <time>2024-11-09T19:44:40.959Z</time>
      </trkpt>
      <trkpt lat="48.67579" lon="-0.5826">
        <ele>192.613762</ele>
        <time>2024-11-09T19:44:45.748Z</time>
      </trkpt>
      <trkpt lat="48.67559" lon="-0.58235">
        <ele>192.257386</ele>
        <time>2024-11-09T19:44:52.740Z</time>
      </trkpt>
      <trkpt lat="48.67529" lon="-0.58212">
        <ele>191.780208</ele>
        <time>2024-11-09T19:45:02.233Z</time>
      </trkpt>
      <trkpt lat="48.6749" lon="-0.58193">
        <ele>191.212075</ele>
        <time>2024-11-09T19:45:13.885Z</time>
      </trkpt>
      <trkpt lat="48.6747" lon="-0.58186">
        <ele>190.926296</ele>
        <time>2024-11-09T19:45:19.893Z</time>
      </trkpt>
      <trkpt lat="48.67398" lon="-0.58186">
        <ele>190.01186</ele>
        <time>2024-11-09T19:45:41.629Z</time>
      </trkpt>
      <trkpt lat="48.67388" lon="-0.58177">
        <ele>189.883179</ele>
        <time>2024-11-09T19:45:45.128Z</time>
      </trkpt>
      <trkpt lat="48.67284" lon="-0.58198">
        <ele>188.724417</ele>
        <time>2024-11-09T19:46:04.667Z</time>
      </trkpt>
      <trkpt lat="48.67215" lon="-0.58201">
        <ele>188.922988</ele>
        <time>2024-11-09T19:46:17.268Z</time>
      </trkpt>
      <trkpt lat="48.67199" lon="-0.58203">
        <ele>189.167474</ele>
        <time>2024-11-09T19:46:20.345Z</time>
      </trkpt>
      <trkpt lat="48.67193" lon="-0.58189">
        <ele>189.331539</ele>
        <time>2024-11-09T19:46:22.285Z</time>
      </trkpt>
      <trkpt lat="48.6717" lon="-0.58086">
        <ele>190.437153</ele>
        <time>2024-11-09T19:46:41.164Z</time>
      </trkpt>
      <trkpt lat="48.67167" lon="-0.5807">
        <ele>190.607293</ele>
        <time>2024-11-09T19:46:45.193Z</time>
      </trkpt>
      <trkpt lat="48.67147" lon="-0.57967">
        <ele>193.794217</ele>
        <time>2024-11-09T19:47:17.222Z</time>
      </trkpt>
      <trkpt lat="48.67143" lon="-0.57934">
        <ele>195.387594</ele>
        <time>2024-11-09T19:47:29.315Z</time>
      </trkpt>
      <trkpt lat="48.67131" lon="-0.5761">
        <ele>210.97871</ele>
        <time>2024-11-09T19:49:37.889Z</time>
      </trkpt>
      <trkpt lat="48.67126" lon="-0.57561">
        <ele>213.434757</ele>
        <time>2024-11-09T19:49:56.764Z</time>
      </trkpt>
      <trkpt lat="48.67122" lon="-0.57518">
        <ele>215.532759</ele>
        <time>2024-11-09T19:50:12.290Z</time>
      </trkpt>
      <trkpt lat="48.6711" lon="-0.57449">
        <ele>218.057433</ele>
        <time>2024-11-09T19:50:35.791Z</time>
      </trkpt>
      <trkpt lat="48.67092" lon="-0.57382">
        <ele>219.525925</ele>
        <time>2024-11-09T19:50:56.319Z</time>
      </trkpt>
      <trkpt lat="48.66977" lon="-0.57137">
        <ele>221.671686</ele>
        <time>2024-11-09T19:51:48.409Z</time>
      </trkpt>
      <trkpt lat="48.6697" lon="-0.57123">
        <ele>221.50953</ele>
        <time>2024-11-09T19:51:50.142Z</time>
      </trkpt>
      <trkpt lat="48.66961" lon="-0.57092">
        <ele>221.201225</ele>
        <time>2024-11-09T19:51:53.317Z</time>
      </trkpt>
      <trkpt lat="48.66948" lon="-0.5705">
        <ele>220.773908</ele>
        <time>2024-11-09T19:51:57.573Z</time>
      </trkpt>
      <trkpt lat="48.66921" lon="-0.56933">
        <ele>218.627209</ele>
        <time>2024-11-09T19:52:08.385Z</time>
      </trkpt>
      <trkpt lat="48.66839" lon="-0.56607">
        <ele>214.728678</ele>
        <time>2024-11-09T19:52:43.108Z</time>
      </trkpt>
      <trkpt lat="48.66857" lon="-0.56608">
        <ele>214.744414</ele>
        <time>2024-11-09T19:52:48.036Z</time>
      </trkpt>
      <trkpt lat="48.66993" lon="-0.5666">
        <ele>218.584306</ele>
        <time>2024-11-09T19:53:45.375Z</time>
      </trkpt>
      <trkpt lat="48.67003" lon="-0.5667">
        <ele>219.149458</ele>
        <time>2024-11-09T19:53:51.120Z</time>
      </trkpt>
      <trkpt lat="48.67043" lon="-0.56728">
        <ele>221.623652</ele>
        <time>2024-11-09T19:54:16.205Z</time>
      </trkpt>
      <trkpt lat="48.67068" lon="-0.56751">
        <ele>222.952939</ele>
        <time>2024-11-09T19:54:29.723Z</time>
      </trkpt>
      <trkpt lat="48.6709" lon="-0.56761">
        <ele>223.839041</ele>
        <time>2024-11-09T19:54:39.815Z</time>
      </trkpt>
      <trkpt lat="48.67197" lon="-0.5677">
        <ele>228.112015</ele>
        <time>2024-11-09T19:55:23.302Z</time>
      </trkpt>
      <trkpt lat="48.67203" lon="-0.5677">
        <ele>228.359364</ele>
        <time>2024-11-09T19:55:25.629Z</time>
      </trkpt>
      <trkpt lat="48.67251" lon="-0.56774">
        <ele>230.233318</ele>
        <time>2024-11-09T19:55:43.040Z</time>
      </trkpt>
      <trkpt lat="48.67275" lon="-0.56776">
        <ele>231.080595</ele>
        <time>2024-11-09T19:55:51.640Z</time>
      </trkpt>
      <trkpt lat="48.67311" lon="-0.56776">
        <ele>232.306505</ele>
        <time>2024-11-09T19:56:03.984Z</time>
      </trkpt>
      <trkpt lat="48.67318" lon="-0.56774">
        <ele>232.568057</ele>
        <time>2024-11-09T19:56:06.687Z</time>
      </trkpt>
      <trkpt lat="48.67343" lon="-0.56759">
        <ele>233.489036</ele>
        <time>2024-11-09T19:56:16.464Z</time>
      </trkpt>
      <trkpt lat="48.67365" lon="-0.56733">
        <ele>234.463649</ele>
        <time>2024-11-09T19:56:27.486Z</time>
      </trkpt>
      <trkpt lat="48.6741" lon="-0.56681">
        <ele>236.354559</ele>
        <time>2024-11-09T19:56:50.047Z</time>
      </trkpt>
      <trkpt lat="48.67424" lon="-0.5667">
        <ele>236.665448</ele>
        <time>2024-11-09T19:56:56.345Z</time>
      </trkpt>
      <trkpt lat="48.6744" lon="-0.56668">
        <ele>236.975131</ele>
        <time>2024-11-09T19:57:02.561Z</time>
      </trkpt>
      <trkpt lat="48.67461" lon="-0.56673">
        <ele>237.383452</ele>
        <time>2024-11-09T19:57:10.644Z</time>
      </trkpt>
      <trkpt lat="48.67483" lon="-0.56685">
        <ele>237.823661</ele>
        <time>2024-11-09T19:57:19.221Z</time>
      </trkpt>
      <trkpt lat="48.67632" lon="-0.56785">
        <ele>237.441426</ele>
        <time>2024-11-09T19:57:57.641Z</time>
      </trkpt>
      <trkpt lat="48.67753" lon="-0.56836">
        <ele>232.414728</ele>
        <time>2024-11-09T19:58:15.163Z</time>
      </trkpt>
      <trkpt lat="48.67878" lon="-0.56898">
        <ele>221.606129</ele>
        <time>2024-11-09T19:58:32.233Z</time>
      </trkpt>
      <trkpt lat="48.67939" lon="-0.56916">
        <ele>216.68105</ele>
        <time>2024-11-09T19:58:40.304Z</time>
      </trkpt>
      <trkpt lat="48.6797" lon="-0.5691">
        <ele>214.369391</ele>
        <time>2024-11-09T19:58:44.411Z</time>
      </trkpt>
      <trkpt lat="48.67988" lon="-0.569">
        <ele>212.983569</ele>
        <time>2024-11-09T19:58:46.877Z</time>
      </trkpt>
      <trkpt lat="48.6801" lon="-0.56881">
        <ele>211.137842</ele>
        <time>2024-11-09T19:58:50.211Z</time>
      </trkpt>
      <trkpt lat="48.68033" lon="-0.56845">
        <ele>208.65734</ele>
        <time>2024-11-09T19:58:57.899Z</time>
      </trkpt>
      <trkpt lat="48.68056" lon="-0.56793">
        <ele>205.626458</ele>
        <time>2024-11-09T19:59:07.599Z</time>
      </trkpt>
      <trkpt lat="48.68069" lon="-0.56757">
        <ele>204.227867</ele>
        <time>2024-11-09T19:59:13.860Z</time>
      </trkpt>
      <trkpt lat="48.68091" lon="-0.56722">
        <ele>202.765867</ele>
        <time>2024-11-09T19:59:21.324Z</time>
      </trkpt>
      <trkpt lat="48.68126" lon="-0.56705">
        <ele>201.077486</ele>
        <time>2024-11-09T19:59:30.132Z</time>
      </trkpt>
      <trkpt lat="48.68131" lon="-0.56687">
        <ele>200.503844</ele>
        <time>2024-11-09T19:59:33.201Z</time>
      </trkpt>
      <trkpt lat="48.68137" lon="-0.56696">
        <ele>200.111673</ele>
        <time>2024-11-09T19:59:35.265Z</time>
      </trkpt>
      <trkpt lat="48.68166" lon="-0.56725">
        <ele>198.539954</ele>
        <time>2024-11-09T19:59:43.919Z</time>
      </trkpt>
      <trkpt lat="48.68169" lon="-0.56753">
        <ele>197.713301</ele>
        <time>2024-11-09T19:59:48.638Z</time>
      </trkpt>
      <trkpt lat="48.68159" lon="-0.56782">
        <ele>196.935506</ele>
        <time>2024-11-09T19:59:54.326Z</time>
      </trkpt>
      <trkpt lat="48.68156" lon="-0.56801">
        <ele>196.893874</ele>
        <time>2024-11-09T19:59:57.692Z</time>
      </trkpt>
      <trkpt lat="48.68158" lon="-0.56808">
        <ele>196.87642</ele>
        <time>2024-11-09T19:59:59.070Z</time>
      </trkpt>
      <trkpt lat="48.68166" lon="-0.5682">
        <ele>196.838561</ele>
        <time>2024-11-09T20:00:02.181Z</time>
      </trkpt>
      <trkpt lat="48.68218" lon="-0.56725">
        <ele>196.567195</ele>
        <time>2024-11-09T20:00:19.420Z</time>
      </trkpt>
      <trkpt lat="48.68592" lon="-0.5621">
        <ele>200.477149</ele>
        <time>2024-11-09T20:02:32.578Z</time>
      </trkpt>
      <trkpt lat="48.68638" lon="-0.56155">
        <ele>200.89486</ele>
        <time>2024-11-09T20:02:46.149Z</time>
      </trkpt>
      <trkpt lat="48.68688" lon="-0.5611">
        <ele>201.238171</ele>
        <time>2024-11-09T20:03:00.351Z</time>
      </trkpt>
      <trkpt lat="48.68786" lon="-0.56046">
        <ele>201.579696</ele>
        <time>2024-11-09T20:03:26.335Z</time>
      </trkpt>
      <trkpt lat="48.68916" lon="-0.55978">
        <ele>201.738192</ele>
        <time>2024-11-09T20:03:54.915Z</time>
      </trkpt>
      <trkpt lat="48.70175" lon="-0.55183">
        <ele>201.525948</ele>
        <time>2024-11-09T20:08:46.200Z</time>
      </trkpt>
      <trkpt lat="48.7038" lon="-0.55054">
        <ele>201.978314</ele>
        <time>2024-11-09T20:09:34.755Z</time>
      </trkpt>
      <trkpt lat="48.70671" lon="-0.5488">
        <ele>204.34759</ele>
        <time>2024-11-09T20:10:54.383Z</time>
      </trkpt>
      <trkpt lat="48.7073" lon="-0.54855">
        <ele>204.952632</ele>
        <time>2024-11-09T20:11:11.805Z</time>
      </trkpt>
      <trkpt lat="48.70726" lon="-0.54817">
        <ele>205.206163</ele>
        <time>2024-11-09T20:11:18.602Z</time>
      </trkpt>
      <trkpt lat="48.70734" lon="-0.5478">
        <ele>205.455883</ele>
        <time>2024-11-09T20:11:25.061Z</time>
      </trkpt>
      <trkpt lat="48.70762" lon="-0.54741">
        <ele>205.833825</ele>
        <time>2024-11-09T20:11:34.290Z</time>
      </trkpt>
      <trkpt lat="48.70788" lon="-0.54701">
        <ele>206.054671</ele>
        <time>2024-11-09T20:11:42.220Z</time>
      </trkpt>
      <trkpt lat="48.70793" lon="-0.54693">
        <ele>206.030842</ele>
        <time>2024-11-09T20:11:43.662Z</time>
      </trkpt>
      <trkpt lat="48.70874" lon="-0.54523">
        <ele>205.550654</ele>
        <time>2024-11-09T20:12:08.349Z</time>
      </trkpt>
      <trkpt lat="48.70894" lon="-0.54492">
        <ele>205.470775</ele>
        <time>2024-11-09T20:12:13.257Z</time>
      </trkpt>
      <trkpt lat="48.70926" lon="-0.54452">
        <ele>205.494646</ele>
        <time>2024-11-09T20:12:20.594Z</time>
      </trkpt>
      <trkpt lat="48.70967" lon="-0.54401">
        <ele>205.525337</ele>
        <time>2024-11-09T20:12:30.346Z</time>
      </trkpt>
      <trkpt lat="48.71011" lon="-0.54346">
        <ele>205.557794</ele>
        <time>2024-11-09T20:12:41.505Z</time>
      </trkpt>
      <trkpt lat="48.71041" lon="-0.5431">
        <ele>205.889037</ele>
        <time>2024-11-09T20:12:51.291Z</time>
      </trkpt>
      <trkpt lat="48.71043" lon="-0.54307">
        <ele>205.949922</ele>
        <time>2024-11-09T20:12:52.081Z</time>
      </trkpt>
      <trkpt lat="48.71029" lon="-0.54281">
        <ele>206.421406</ele>
        <time>2024-11-09T20:12:59.626Z</time>
      </trkpt>
      <trkpt lat="48.71043" lon="-0.54307">
        <ele>206.892891</ele>
        <time>2024-11-09T20:13:07.658Z</time>
      </trkpt>
      <trkpt lat="48.71137" lon="-0.54186">
        <ele>209.383171</ele>
        <time>2024-11-09T20:13:48.093Z</time>
      </trkpt>
      <trkpt lat="48.71149" lon="-0.54158">
        <ele>209.383171</ele>
        <time>2024-11-09T20:13:54.470Z</time>
      </trkpt>
      <trkpt lat="48.71154" lon="-0.54124">
        <ele>209.383171</ele>
        <time>2024-11-09T20:14:00.475Z</time>
      </trkpt>
      <trkpt lat="48.71152" lon="-0.54059">
        <ele>209.383171</ele>
        <time>2024-11-09T20:14:10.629Z</time>
      </trkpt>
      <trkpt lat="48.71152" lon="-0.54053">
        <ele>209.383171</ele>
        <time>2024-11-09T20:14:11.509Z</time>
      </trkpt>
      <trkpt lat="48.71151" lon="-0.5402">
        <ele>209.383171</ele>
        <time>2024-11-09T20:14:15.864Z</time>
      </trkpt>
    </trkseg>
  </trk>
</gpx>